createdAt,value
2022-09-23T00:01:35.948Z,7.14
2022-09-23T00:04:04.674Z,7.19
2022-09-23T00:06:33.271Z,7.23
2022-09-23T00:09:01.971Z,7.31
2022-09-23T00:11:30.849Z,7.35
2022-09-23T00:14:01.255Z,7.38
2022-09-23T00:16:34.927Z,7.41
2022-09-23T00:19:04.768Z,7.45
2022-09-23T00:21:33.454Z,7.45
2022-09-23T00:24:02.772Z,7.50
2022-09-23T00:26:31.418Z,7.56
2022-09-23T00:29:00.179Z,7.58
2022-09-23T00:31:28.964Z,7.56
2022-09-23T00:34:02.085Z,7.56
2022-09-23T00:36:31.711Z,7.61
2022-09-23T00:39:00.364Z,7.57
2022-09-23T00:41:29.154Z,7.58
2022-09-23T00:44:00.595Z,7.54
2022-09-23T00:46:35.210Z,7.51
2022-09-23T00:49:16.093Z,7.55
2022-09-23T00:51:55.526Z,7.53
2022-09-23T00:54:27.776Z,7.53
2022-09-23T00:57:00.003Z,7.58
2022-09-23T00:59:29.399Z,7.60
2022-09-23T01:02:00.601Z,7.66
2022-09-23T01:04:30.888Z,7.71
2022-09-23T01:06:59.542Z,7.75
2022-09-23T01:09:29.256Z,7.83
2022-09-23T01:12:11.080Z,7.89
2022-09-23T01:14:55.706Z,7.89
2022-09-23T01:17:37.258Z,7.98
2022-09-23T01:20:39.336Z,8.00
2022-09-23T01:23:22.702Z,7.96
2022-09-23T01:26:09.449Z,8.06
2022-09-23T01:29:17.918Z,8.08
2022-09-23T01:31:56.002Z,8.12
2022-09-23T01:34:45.167Z,8.16
2022-09-23T01:37:29.019Z,8.18
2022-09-23T01:40:37.635Z,8.14
2022-09-23T01:43:15.152Z,8.13
2022-09-23T01:45:47.685Z,8.10
2022-09-23T01:48:43.792Z,8.11
2022-09-23T01:51:33.132Z,8.11
2022-09-23T01:54:26.651Z,8.10
2022-09-23T01:57:32.123Z,8.07
2022-09-23T02:00:13.826Z,8.11
2022-09-23T02:03:28.048Z,8.11
2022-09-23T02:06:23.926Z,8.05
2022-09-23T02:09:02.398Z,8.07
2022-09-23T02:11:36.541Z,8.10
2022-09-23T02:14:30.761Z,8.02
2022-09-23T02:17:09.767Z,8.02
2022-09-23T02:19:55.430Z,8.01
2022-09-23T02:22:41.363Z,8.01
2022-09-23T02:25:12.672Z,7.99
2022-09-23T02:27:52.720Z,7.98
2022-09-23T02:30:27.451Z,8.04
2022-09-23T02:33:08.821Z,8.09
2022-09-23T02:35:45.576Z,8.06
2022-09-23T02:38:29.554Z,8.11
2022-09-23T02:41:05.448Z,8.09
2022-09-23T02:43:52.146Z,8.16
2022-09-23T02:46:22.093Z,8.17
2022-09-23T02:49:04.374Z,8.20
2022-09-23T02:51:37.902Z,8.19
2022-09-23T02:54:11.109Z,8.19
2022-09-23T02:56:40.292Z,8.23
2022-09-23T02:59:10.768Z,8.26
2022-09-23T03:02:28.249Z,8.28
2022-09-23T03:05:04.062Z,8.29
2022-09-23T03:08:28.197Z,8.30
2022-09-23T03:11:07.148Z,8.34
2022-09-23T03:14:17.737Z,8.36
2022-09-23T03:17:12.659Z,8.40
2022-09-23T03:19:52.354Z,8.45
2022-09-23T03:22:47.536Z,8.43
2022-09-23T03:25:21.715Z,8.48
2022-09-23T03:27:50.530Z,8.44
2022-09-23T03:30:19.329Z,8.38
2022-09-23T03:32:49.505Z,8.39
2022-09-23T03:35:18.267Z,8.41
2022-09-23T03:38:17.163Z,8.44
2022-09-23T03:40:51.118Z,8.48
2022-09-23T03:43:20.241Z,8.48
2022-09-23T03:45:48.945Z,8.49
2022-09-23T03:48:17.555Z,8.50
2022-09-23T03:50:46.152Z,8.49
2022-09-23T03:53:15.065Z,8.51
2022-09-23T03:55:43.821Z,8.48
2022-09-23T03:58:12.468Z,8.50
2022-09-23T04:00:41.212Z,8.50
2022-09-23T04:03:11.970Z,8.50
2022-09-23T04:05:43.673Z,8.55
2022-09-23T04:08:12.351Z,8.57
2022-09-23T04:10:42.497Z,8.61
2022-09-23T04:13:11.130Z,8.63
2022-09-23T04:15:41.182Z,8.65
2022-09-23T04:18:09.929Z,8.63
2022-09-23T04:20:39.849Z,8.62
2022-09-23T04:23:08.475Z,8.61
2022-09-23T04:25:45.238Z,8.62
2022-09-23T04:28:14.156Z,8.63
2022-09-23T04:30:44.038Z,8.63
2022-09-23T04:33:14.084Z,8.65
2022-09-23T04:35:43.723Z,8.66
2022-09-23T04:38:12.942Z,8.69
2022-09-23T04:40:41.614Z,8.74
2022-09-23T04:43:13.555Z,8.75
2022-09-23T04:45:45.797Z,8.80
2022-09-23T04:48:14.413Z,8.89
2022-09-23T04:50:42.983Z,8.92
2022-09-23T04:53:11.545Z,8.93
2022-09-23T04:55:40.186Z,8.99
2022-09-23T04:58:10.262Z,8.99
2022-09-23T05:00:38.969Z,9.01
2022-09-23T05:03:07.714Z,9.03
2022-09-23T05:05:36.387Z,9.04
2022-09-23T05:08:05.026Z,9.05
2022-09-23T05:10:33.777Z,9.07
2022-09-23T05:13:02.356Z,9.11
2022-09-23T05:15:31.053Z,9.08
2022-09-23T05:17:59.747Z,9.11
2022-09-23T05:20:28.928Z,9.14
2022-09-23T05:22:57.522Z,9.13
2022-09-23T05:25:26.123Z,9.17
2022-09-23T05:27:54.748Z,9.19
2022-09-23T05:30:23.456Z,9.24
2022-09-23T05:32:52.176Z,9.30
2022-09-23T05:35:20.751Z,9.23
2022-09-23T05:37:49.348Z,9.36
2022-09-23T05:40:18.061Z,9.42
2022-09-23T05:42:46.783Z,9.53
2022-09-23T05:45:15.497Z,9.54
2022-09-23T05:47:47.021Z,9.62
2022-09-23T05:50:15.890Z,9.59
2022-09-23T05:52:44.582Z,9.64
2022-09-23T05:55:13.242Z,9.70
2022-09-23T05:57:41.875Z,9.73
2022-09-23T06:00:11.677Z,9.79
2022-09-23T06:02:43.316Z,9.81
2022-09-23T06:05:12.475Z,9.90
2022-09-23T06:07:41.103Z,9.90
2022-09-23T06:10:09.965Z,10.08
2022-09-23T06:12:38.569Z,10.16
2022-09-23T06:15:08.350Z,10.18
2022-09-23T06:17:37.009Z,10.24
2022-09-23T06:20:06.121Z,10.33
2022-09-23T06:22:39.562Z,10.50
2022-09-23T06:25:09.639Z,10.61
2022-09-23T06:27:38.360Z,10.71
2022-09-23T06:30:08.609Z,10.69
2022-09-23T06:32:37.302Z,10.86
2022-09-23T06:35:14.363Z,10.83
2022-09-23T06:37:48.554Z,10.87
2022-09-23T06:40:18.023Z,10.84
2022-09-23T06:42:52.078Z,10.91
2022-09-23T06:45:21.152Z,10.83
2022-09-23T06:47:58.155Z,10.84
2022-09-23T06:50:28.283Z,10.83
2022-09-23T06:52:58.642Z,10.64
2022-09-23T06:55:28.075Z,10.60
2022-09-23T06:57:59.039Z,10.57
2022-09-23T07:00:27.950Z,10.52
2022-09-23T07:02:57.323Z,10.45
2022-09-23T07:05:26.043Z,10.37
2022-09-23T07:07:54.814Z,10.45
2022-09-23T07:10:23.435Z,10.40
2022-09-23T07:12:52.587Z,10.44
2022-09-23T07:15:21.611Z,10.51
2022-09-23T07:17:50.165Z,10.48
2022-09-23T07:20:18.900Z,10.63
2022-09-23T07:22:53.617Z,10.57
2022-09-23T07:25:23.312Z,10.62
2022-09-23T07:27:51.978Z,10.65
2022-09-23T07:30:25.156Z,10.72
2022-09-23T07:32:54.189Z,10.77
2022-09-23T07:35:22.970Z,10.76
2022-09-23T07:37:51.633Z,10.67
2022-09-23T07:40:20.511Z,10.66
2022-09-23T07:42:49.524Z,10.66
2022-09-23T07:45:18.503Z,10.85
2022-09-23T07:47:47.181Z,11.02
2022-09-23T07:50:15.814Z,11.24
2022-09-23T07:52:44.398Z,11.47
2022-09-23T07:55:18.806Z,11.72
2022-09-23T07:57:49.577Z,11.95
2022-09-23T08:00:18.924Z,12.00
2022-09-23T08:02:52.999Z,12.17
2022-09-23T08:05:22.887Z,12.22
2022-09-23T08:07:51.533Z,12.38
2022-09-23T08:10:21.086Z,12.33
2022-09-23T08:12:49.719Z,12.22
2022-09-23T08:15:18.416Z,12.20
2022-09-23T08:17:46.967Z,12.17
2022-09-23T08:20:35.649Z,12.26
2022-09-23T08:23:04.346Z,12.25
2022-09-23T08:25:34.777Z,12.20
2022-09-23T08:28:03.526Z,12.32
2022-09-23T08:30:32.214Z,12.29
2022-09-23T08:33:01.255Z,12.17
2022-09-23T08:35:30.006Z,12.12
2022-09-23T08:37:58.672Z,12.15
2022-09-23T08:40:27.835Z,12.29
2022-09-23T08:42:57.045Z,12.40
2022-09-23T08:45:28.733Z,12.53
2022-09-23T08:48:16.000Z,12.56
2022-09-23T08:51:01.978Z,12.70
2022-09-23T08:53:36.220Z,12.82
2022-09-23T08:56:23.826Z,12.93
2022-09-23T08:59:41.298Z,13.21
2022-09-23T09:02:21.987Z,13.10
2022-09-23T09:05:00.166Z,13.05
2022-09-23T09:07:37.355Z,12.94
2022-09-23T09:10:42.018Z,12.87
2022-09-23T09:13:36.255Z,13.02
2022-09-23T09:16:41.857Z,12.95
2022-09-23T09:19:31.454Z,13.28
2022-09-23T09:22:01.697Z,13.22
2022-09-23T09:24:35.681Z,13.22
2022-09-23T09:27:18.115Z,13.14
2022-09-23T09:29:54.336Z,13.03
2022-09-23T09:32:47.594Z,12.95
2022-09-23T09:35:34.545Z,12.83
2022-09-23T09:38:05.898Z,12.90
2022-09-23T09:40:35.323Z,13.03
2022-09-23T09:43:04.959Z,12.94
2022-09-23T09:46:13.488Z,12.93
2022-09-23T09:49:39.542Z,13.02
2022-09-23T09:52:22.546Z,13.11
2022-09-23T09:54:52.120Z,13.16
2022-09-23T09:57:38.264Z,13.24
2022-09-23T10:00:21.939Z,13.30
2022-09-23T10:03:01.906Z,13.12
2022-09-23T10:05:57.908Z,13.13
2022-09-23T10:08:37.208Z,12.97
2022-09-23T10:11:17.393Z,12.80
2022-09-23T10:14:11.121Z,12.74
2022-09-23T10:16:42.374Z,12.73
2022-09-23T10:19:29.704Z,12.89
2022-09-23T10:22:08.658Z,13.04
2022-09-23T10:24:37.330Z,13.32
2022-09-23T10:27:09.911Z,13.46
2022-09-23T10:29:50.948Z,13.64
2022-09-23T10:32:31.542Z,13.84
2022-09-23T10:35:09.182Z,13.93
2022-09-23T10:37:51.800Z,14.17
2022-09-23T10:40:59.029Z,14.41
2022-09-23T10:44:11.488Z,14.71
2022-09-23T10:46:49.551Z,15.15
2022-09-23T10:49:33.141Z,15.30
2022-09-23T10:52:44.369Z,15.51
2022-09-23T10:55:50.915Z,15.52
2022-09-23T10:58:43.596Z,15.53
2022-09-23T11:01:39.857Z,15.33
2022-09-23T11:04:32.598Z,15.20
2022-09-23T11:07:37.433Z,15.37
2022-09-23T11:10:53.247Z,15.65
2022-09-23T11:13:40.318Z,16.25
2022-09-23T11:16:39.227Z,16.24
2022-09-23T11:20:05.475Z,15.89
2022-09-23T11:23:10.706Z,15.67
2022-09-23T11:26:12.637Z,15.39
2022-09-23T11:29:34.114Z,15.38
2022-09-23T11:32:48.365Z,15.05
2022-09-23T11:35:41.878Z,14.69
2022-09-23T11:38:46.331Z,14.62
2022-09-23T11:41:37.510Z,14.75
2022-09-23T11:44:20.954Z,15.05
2022-09-23T11:47:08.450Z,15.44
2022-09-23T11:49:49.007Z,15.29
2022-09-23T11:52:25.070Z,15.06
2022-09-23T11:55:21.128Z,14.99
2022-09-23T11:58:03.546Z,14.92
2022-09-23T12:00:40.059Z,14.54
2022-09-23T12:03:44.415Z,14.53
2022-09-23T12:06:37.241Z,14.49
2022-09-23T12:09:35.732Z,14.40
2022-09-23T12:12:56.167Z,14.28
2022-09-23T12:16:05.117Z,14.50
2022-09-23T12:18:56.156Z,15.12
2022-09-23T12:21:56.824Z,15.76
2022-09-23T12:24:37.831Z,15.94
2022-09-23T12:27:24.136Z,15.94
2022-09-23T12:30:01.702Z,15.28
2022-09-23T12:32:32.337Z,15.70
2022-09-23T12:35:01.609Z,15.77
2022-09-23T12:37:38.856Z,15.94
2022-09-23T12:40:39.330Z,15.82
2022-09-23T12:43:36.350Z,16.47
2022-09-23T12:46:27.856Z,16.31
2022-09-23T12:48:58.067Z,16.03
2022-09-23T12:51:37.273Z,15.74
2022-09-23T12:54:06.066Z,15.38
2022-09-23T12:56:34.812Z,15.11
2022-09-23T12:59:27.498Z,14.85
2022-09-23T13:01:57.451Z,14.63
2022-09-23T13:04:49.593Z,14.58
2022-09-23T13:07:31.242Z,14.46
2022-09-23T13:10:33.115Z,14.44
2022-09-23T13:13:02.563Z,14.40
2022-09-23T13:15:36.900Z,14.41
2022-09-23T13:18:20.701Z,14.38
2022-09-23T13:20:51.918Z,14.41
2022-09-23T13:23:31.513Z,14.53
2022-09-23T13:26:09.561Z,14.74
2022-09-23T13:28:58.767Z,14.84
2022-09-23T13:31:27.576Z,14.80
2022-09-23T13:34:04.901Z,14.74
2022-09-23T13:36:45.725Z,14.87
2022-09-23T13:39:26.010Z,14.93
2022-09-23T13:42:05.109Z,14.94
2022-09-23T13:44:33.825Z,14.84
2022-09-23T13:47:03.519Z,14.71
2022-09-23T13:49:37.331Z,14.79
2022-09-23T13:52:07.104Z,14.67
2022-09-23T13:54:50.206Z,14.78
2022-09-23T13:57:27.996Z,14.62
2022-09-23T14:00:25.982Z,14.56
2022-09-23T14:02:54.583Z,14.29
2022-09-23T14:05:27.454Z,14.29
2022-09-23T14:07:56.657Z,14.13
2022-09-23T14:10:28.014Z,14.14
2022-09-23T14:12:57.177Z,14.03
2022-09-23T14:15:26.670Z,13.93
2022-09-23T14:18:03.571Z,13.91
2022-09-23T14:20:32.526Z,13.87
2022-09-23T14:23:14.952Z,13.88
2022-09-23T14:25:45.793Z,13.78
2022-09-23T14:28:20.876Z,13.68
2022-09-23T14:30:53.214Z,13.64
2022-09-23T14:33:33.660Z,13.55
2022-09-23T14:37:23.180Z,13.56
2022-09-23T14:39:57.081Z,13.39
2022-09-23T14:42:28.083Z,13.38
2022-09-23T14:44:56.739Z,13.36
2022-09-23T14:47:25.959Z,13.24
2022-09-23T14:50:12.851Z,13.14
2022-09-23T14:52:52.223Z,13.17
2022-09-23T14:55:21.014Z,13.15
2022-09-23T14:58:05.021Z,13.09
2022-09-23T15:00:38.922Z,13.06
2022-09-23T15:03:17.457Z,13.06
2022-09-23T15:05:49.193Z,13.00
2022-09-23T15:08:26.473Z,12.94
2022-09-23T15:10:56.042Z,12.91
2022-09-23T15:13:30.184Z,12.87
2022-09-23T15:16:04.142Z,12.80
2022-09-23T15:18:36.771Z,12.74
2022-09-23T15:21:09.677Z,12.69
2022-09-23T15:23:49.199Z,12.69
2022-09-23T15:26:24.993Z,12.62
2022-09-23T15:28:58.516Z,12.43
2022-09-23T15:31:27.405Z,12.51
2022-09-23T15:33:56.693Z,12.43
2022-09-23T15:36:30.266Z,12.29
2022-09-23T15:39:11.024Z,12.26
2022-09-23T15:41:39.906Z,12.22
2022-09-23T15:44:19.157Z,12.15
2022-09-23T15:46:52.090Z,12.08
2022-09-23T15:49:34.405Z,11.98
2022-09-23T15:52:05.699Z,11.87
2022-09-23T15:54:43.700Z,11.78
2022-09-23T15:57:12.876Z,11.64
2022-09-23T15:59:41.540Z,11.60
2022-09-23T16:02:24.006Z,11.53
2022-09-23T16:04:53.753Z,11.46
2022-09-23T16:07:23.335Z,11.34
2022-09-23T16:09:51.965Z,11.25
2022-09-23T16:12:20.891Z,11.19
2022-09-23T16:14:49.455Z,11.12
2022-09-23T16:17:18.695Z,11.08
2022-09-23T16:19:47.373Z,11.00
2022-09-23T16:22:16.257Z,10.94
2022-09-23T16:24:44.943Z,10.86
2022-09-23T16:27:18.773Z,10.79
2022-09-23T16:29:47.329Z,10.72
2022-09-23T16:32:20.164Z,10.67
2022-09-23T16:34:50.833Z,10.66
2022-09-23T16:37:21.541Z,10.67
2022-09-23T16:39:50.173Z,10.69
2022-09-23T16:42:18.753Z,10.68
2022-09-23T16:44:47.722Z,10.68
2022-09-23T16:47:16.574Z,10.69
2022-09-23T16:49:45.155Z,10.66
2022-09-23T16:52:13.838Z,10.64
2022-09-23T16:54:43.640Z,10.60
2022-09-23T16:57:13.498Z,10.56
2022-09-23T17:00:00.526Z,10.53
2022-09-23T17:02:47.638Z,10.49
2022-09-23T17:05:17.237Z,10.46
2022-09-23T17:07:47.031Z,10.46
2022-09-23T17:10:17.430Z,10.45
2022-09-23T17:12:46.008Z,10.45
2022-09-23T17:15:14.598Z,10.42
2022-09-23T17:17:43.318Z,10.39
2022-09-23T17:20:14.492Z,10.37
2022-09-23T17:22:43.289Z,10.37
2022-09-23T17:25:11.844Z,10.38
2022-09-23T17:27:40.572Z,10.36
2022-09-23T17:30:10.566Z,10.33
2022-09-23T17:32:39.252Z,10.32
2022-09-23T17:35:10.135Z,10.33
2022-09-23T17:37:38.748Z,10.31
2022-09-23T17:40:08.229Z,10.29
2022-09-23T17:42:43.671Z,10.27
2022-09-23T17:45:13.183Z,10.16
2022-09-23T17:47:42.477Z,10.15
2022-09-23T17:50:11.044Z,10.11
2022-09-23T17:52:39.665Z,10.07
2022-09-23T17:55:09.086Z,10.04
2022-09-23T17:57:37.659Z,10.00
2022-09-23T18:00:07.758Z,9.99
2022-09-23T18:02:40.448Z,9.95
2022-09-23T18:05:09.648Z,9.91
2022-09-23T18:07:38.276Z,9.88
2022-09-23T18:10:09.084Z,9.84
2022-09-23T18:12:37.740Z,9.77
2022-09-23T18:15:06.629Z,9.69
2022-09-23T18:17:35.245Z,9.67
2022-09-23T18:20:04.478Z,9.63
2022-09-23T18:22:33.282Z,9.56
2022-09-23T18:25:13.072Z,9.50
2022-09-23T18:27:51.525Z,9.45
2022-09-23T18:30:20.238Z,9.40
2022-09-23T18:32:49.264Z,9.36
2022-09-23T18:35:18.653Z,9.32
2022-09-23T18:37:47.262Z,9.26
2022-09-23T18:40:16.050Z,9.20
2022-09-23T18:42:44.703Z,9.16
2022-09-23T18:45:13.613Z,9.10
2022-09-23T18:48:00.530Z,9.06
2022-09-23T18:50:43.587Z,9.00
2022-09-23T18:53:12.457Z,8.95
2022-09-23T18:55:41.136Z,8.89
2022-09-23T18:58:10.746Z,8.85
2022-09-23T19:00:39.815Z,8.79
2022-09-23T19:03:08.592Z,8.73
2022-09-23T19:05:37.287Z,8.72
2022-09-23T19:08:05.863Z,8.70
2022-09-23T19:10:34.496Z,8.73
2022-09-23T19:13:03.084Z,8.70
2022-09-23T19:15:33.298Z,8.68
2022-09-23T19:18:01.893Z,8.63
2022-09-23T19:20:30.588Z,8.61
2022-09-23T19:22:59.211Z,8.59
2022-09-23T19:25:27.851Z,8.60
2022-09-23T19:27:57.176Z,8.60
2022-09-23T19:30:25.944Z,8.61
2022-09-23T19:32:54.587Z,8.60
2022-09-23T19:35:23.454Z,8.58
2022-09-23T19:37:52.446Z,8.58
2022-09-23T19:40:21.321Z,8.57
2022-09-23T19:42:55.461Z,8.59
2022-09-23T19:45:24.143Z,8.58
2022-09-23T19:47:56.966Z,8.58
2022-09-23T19:50:25.632Z,8.55
2022-09-23T19:52:54.232Z,8.52
2022-09-23T19:55:23.018Z,8.50
2022-09-23T19:57:51.687Z,8.49
2022-09-23T20:00:20.566Z,8.41
2022-09-23T20:02:49.319Z,8.38
2022-09-23T20:05:20.251Z,8.43
2022-09-23T20:07:49.126Z,8.43
2022-09-23T20:10:18.571Z,8.45
2022-09-23T20:12:47.298Z,8.44
2022-09-23T20:15:17.493Z,8.38
2022-09-23T20:17:46.167Z,8.39
2022-09-23T20:20:16.085Z,8.35
2022-09-23T20:22:44.684Z,8.30
2022-09-23T20:25:13.876Z,8.25
2022-09-23T20:27:42.625Z,8.19
2022-09-23T20:30:12.166Z,8.16
2022-09-23T20:32:44.464Z,8.15
2022-09-23T20:35:13.857Z,8.14
2022-09-23T20:37:52.748Z,8.12
2022-09-23T20:40:25.572Z,8.14
2022-09-23T20:42:54.756Z,8.07
2022-09-23T20:45:23.356Z,8.13
2022-09-23T20:47:52.004Z,8.12
2022-09-23T20:50:20.700Z,8.08
2022-09-23T20:52:49.334Z,8.00
2022-09-23T20:55:18.449Z,7.97
2022-09-23T20:57:49.056Z,7.95
2022-09-23T21:00:18.703Z,7.93
2022-09-23T21:02:47.528Z,7.91
2022-09-23T21:05:18.160Z,7.89
2022-09-23T21:07:47.414Z,7.84
2022-09-23T21:10:16.297Z,7.80
2022-09-23T21:12:50.679Z,7.77
2022-09-23T21:15:19.279Z,7.74
2022-09-23T21:17:47.857Z,7.68
2022-09-23T21:20:16.783Z,7.61
2022-09-23T21:22:45.468Z,7.56
2022-09-23T21:25:27.291Z,7.50
2022-09-23T21:27:58.722Z,7.46
2022-09-23T21:30:27.380Z,7.42
2022-09-23T21:32:56.043Z,7.39
2022-09-23T21:35:24.578Z,7.42
2022-09-23T21:37:53.152Z,7.46
2022-09-23T21:40:39.887Z,7.49
2022-09-23T21:43:08.570Z,7.54
2022-09-23T21:45:37.169Z,7.55
2022-09-23T21:48:05.865Z,7.57
2022-09-23T21:50:37.442Z,7.57
2022-09-23T21:53:06.851Z,7.55
2022-09-23T21:55:35.466Z,7.55
2022-09-23T21:58:05.093Z,7.53
2022-09-23T22:00:33.812Z,7.54
2022-09-23T22:03:02.393Z,7.55
2022-09-23T22:05:30.998Z,7.57
2022-09-23T22:07:59.648Z,7.57
2022-09-23T22:10:28.357Z,7.53
2022-09-23T22:12:57.090Z,7.48
2022-09-23T22:15:26.013Z,7.46
2022-09-23T22:17:54.992Z,7.48
2022-09-23T22:20:23.865Z,7.49
2022-09-23T22:22:53.467Z,7.50
2022-09-23T22:25:22.078Z,7.49
2022-09-23T22:28:09.435Z,7.44
2022-09-23T22:30:58.245Z,7.38
2022-09-23T22:33:26.854Z,7.34
2022-09-23T22:36:03.964Z,7.37
2022-09-23T22:38:33.211Z,7.42
2022-09-23T22:41:01.961Z,7.47
2022-09-23T22:43:33.859Z,7.51
2022-09-23T22:46:02.621Z,7.54
2022-09-23T22:48:31.297Z,7.58
2022-09-23T22:51:01.402Z,7.59
2022-09-23T22:53:30.075Z,7.59
2022-09-23T22:56:01.485Z,7.59
2022-09-23T22:58:32.621Z,7.58
2022-09-23T23:01:02.594Z,7.60
2022-09-23T23:03:33.659Z,7.62
2022-09-23T23:06:04.547Z,7.68
2022-09-23T23:08:33.609Z,7.72
2022-09-23T23:11:11.580Z,7.71
2022-09-23T23:13:43.863Z,7.69
2022-09-23T23:16:13.431Z,7.69
2022-09-23T23:18:45.799Z,7.70
2022-09-23T23:21:19.651Z,7.68
2022-09-23T23:23:53.416Z,7.68
2022-09-23T23:26:26.177Z,7.66
2022-09-23T23:28:57.056Z,7.67
2022-09-23T23:31:28.985Z,7.68
2022-09-23T23:33:57.735Z,7.70
2022-09-23T23:36:26.357Z,7.66
2022-09-23T23:38:54.980Z,7.65
2022-09-23T23:41:23.674Z,7.69
2022-09-23T23:44:00.526Z,7.69
2022-09-23T23:46:32.204Z,7.67
2022-09-23T23:49:01.312Z,7.63
2022-09-23T23:51:30.198Z,7.60
2022-09-23T23:54:00.387Z,7.58
2022-09-23T23:56:30.954Z,7.58
2022-09-23T23:59:05.199Z,7.57
